sensor_id;sensor_type;location;lat;lon;timestamp;P1;durP1;ratioP1;P2;durP2;ratioP2
74920;SDS011;63483;47.384;8.860;2023-05-28T00:00:06;6.77;;;4.90;;
74920;SDS011;63483;47.384;8.860;2023-05-28T00:02:33;7.93;;;5.55;;
74920;SDS011;63483;47.384;8.860;2023-05-28T00:04:59;8.82;;;5.15;;
74920;SDS011;63483;47.384;8.860;2023-05-28T00:07:25;7.97;;;5.40;;
74920;SDS011;63483;47.384;8.860;2023-05-28T00:09:53;7.00;;;4.47;;
74920;SDS011;63483;47.384;8.860;2023-05-28T00:12:19;11.10;;;5.53;;
74920;SDS011;63483;47.384;8.860;2023-05-28T00:14:44;8.17;;;4.93;;
74920;SDS011;63483;47.384;8.860;2023-05-28T00:17:10;10.18;;;5.07;;
74920;SDS011;63483;47.384;8.860;2023-05-28T00:19:36;9.00;;;4.93;;
74920;SDS011;63483;47.384;8.860;2023-05-28T00:22:01;7.77;;;4.53;;
74920;SDS011;63483;47.384;8.860;2023-05-28T00:24:27;8.25;;;4.45;;
74920;SDS011;63483;47.384;8.860;2023-05-28T00:26:52;7.37;;;4.43;;
74920;SDS011;63483;47.384;8.860;2023-05-28T00:29:18;8.30;;;4.80;;
74920;SDS011;63483;47.384;8.860;2023-05-28T00:31:43;6.97;;;4.53;;
74920;SDS011;63483;47.384;8.860;2023-05-28T00:34:08;7.30;;;5.20;;
74920;SDS011;63483;47.384;8.860;2023-05-28T00:36:34;7.15;;;4.45;;
74920;SDS011;63483;47.384;8.860;2023-05-28T00:39:00;8.13;;;4.67;;
74920;SDS011;63483;47.384;8.860;2023-05-28T00:41:30;8.27;;;4.40;;
74920;SDS011;63483;47.384;8.860;2023-05-28T00:43:56;7.55;;;4.57;;
74920;SDS011;63483;47.384;8.860;2023-05-28T00:46:21;7.43;;;4.20;;
74920;SDS011;63483;47.384;8.860;2023-05-28T00:48:49;6.88;;;4.00;;
74920;SDS011;63483;47.384;8.860;2023-05-28T00:51:15;7.93;;;4.43;;
74920;SDS011;63483;47.384;8.860;2023-05-28T00:53:41;7.97;;;4.72;;
74920;SDS011;63483;47.384;8.860;2023-05-28T00:56:08;8.43;;;3.80;;
74920;SDS011;63483;47.384;8.860;2023-05-28T00:58:35;8.52;;;4.55;;
74920;SDS011;63483;47.384;8.860;2023-05-28T01:01:04;7.78;;;4.30;;
74920;SDS011;63483;47.384;8.860;2023-05-28T01:03:31;8.75;;;4.78;;
74920;SDS011;63483;47.384;8.860;2023-05-28T01:05:57;7.18;;;4.28;;
74920;SDS011;63483;47.384;8.860;2023-05-28T01:08:26;6.97;;;4.63;;
74920;SDS011;63483;47.384;8.860;2023-05-28T01:10:52;7.63;;;4.13;;
74920;SDS011;63483;47.384;8.860;2023-05-28T01:13:17;6.23;;;3.90;;
74920;SDS011;63483;47.384;8.860;2023-05-28T01:15:43;6.95;;;4.57;;
74920;SDS011;63483;47.384;8.860;2023-05-28T01:18:09;8.50;;;4.50;;
74920;SDS011;63483;47.384;8.860;2023-05-28T01:20:34;6.18;;;4.00;;
74920;SDS011;63483;47.384;8.860;2023-05-28T01:23:05;6.47;;;4.00;;
74920;SDS011;63483;47.384;8.860;2023-05-28T01:25:32;7.47;;;3.97;;
74920;SDS011;63483;47.384;8.860;2023-05-28T01:28:01;7.53;;;4.50;;
74920;SDS011;63483;47.384;8.860;2023-05-28T01:30:27;6.90;;;4.22;;
74920;SDS011;63483;47.384;8.860;2023-05-28T01:32:52;8.23;;;3.83;;
74920;SDS011;63483;47.384;8.860;2023-05-28T01:35:18;7.03;;;3.90;;
74920;SDS011;63483;47.384;8.860;2023-05-28T01:37:46;7.22;;;4.13;;
74920;SDS011;63483;47.384;8.860;2023-05-28T01:40:13;5.03;;;3.57;;
74920;SDS011;63483;47.384;8.860;2023-05-28T01:42:41;8.13;;;4.13;;
74920;SDS011;63483;47.384;8.860;2023-05-28T01:45:08;6.57;;;3.80;;
74920;SDS011;63483;47.384;8.860;2023-05-28T01:47:35;7.38;;;3.83;;
74920;SDS011;63483;47.384;8.860;2023-05-28T01:50:02;7.72;;;4.25;;
74920;SDS011;63483;47.384;8.860;2023-05-28T01:52:27;8.53;;;3.63;;
74920;SDS011;63483;47.384;8.860;2023-05-28T01:54:53;6.60;;;3.78;;
74920;SDS011;63483;47.384;8.860;2023-05-28T01:57:18;6.70;;;4.00;;
74920;SDS011;63483;47.384;8.860;2023-05-28T01:59:43;7.20;;;3.93;;
74920;SDS011;63483;47.384;8.860;2023-05-28T02:02:09;7.13;;;4.37;;
74920;SDS011;63483;47.384;8.860;2023-05-28T02:04:35;9.48;;;4.00;;
74920;SDS011;63483;47.384;8.860;2023-05-28T02:07:00;6.40;;;3.97;;
74920;SDS011;63483;47.384;8.860;2023-05-28T02:09:26;11.20;;;4.83;;
74920;SDS011;63483;47.384;8.860;2023-05-28T02:11:51;5.97;;;3.80;;
74920;SDS011;63483;47.384;8.860;2023-05-28T02:14:16;8.40;;;4.00;;
74920;SDS011;63483;47.384;8.860;2023-05-28T02:16:45;9.82;;;4.30;;
74920;SDS011;63483;47.384;8.860;2023-05-28T02:19:13;9.27;;;5.57;;
74920;SDS011;63483;47.384;8.860;2023-05-28T02:21:39;6.77;;;3.70;;
74920;SDS011;63483;47.384;8.860;2023-05-28T02:24:05;6.20;;;4.18;;
74920;SDS011;63483;47.384;8.860;2023-05-28T02:26:31;6.70;;;4.10;;
74920;SDS011;63483;47.384;8.860;2023-05-28T02:28:56;6.00;;;3.75;;
74920;SDS011;63483;47.384;8.860;2023-05-28T02:31:22;6.63;;;3.23;;
74920;SDS011;63483;47.384;8.860;2023-05-28T02:33:47;9.27;;;4.10;;
74920;SDS011;63483;47.384;8.860;2023-05-28T02:36:12;7.70;;;4.00;;
74920;SDS011;63483;47.384;8.860;2023-05-28T02:38:38;9.67;;;4.13;;
74920;SDS011;63483;47.384;8.860;2023-05-28T02:41:04;7.90;;;3.83;;
74920;SDS011;63483;47.384;8.860;2023-05-28T02:43:29;5.88;;;3.88;;
74920;SDS011;63483;47.384;8.860;2023-05-28T02:45:55;7.90;;;3.97;;
74920;SDS011;63483;47.384;8.860;2023-05-28T02:48:20;7.07;;;4.07;;
74920;SDS011;63483;47.384;8.860;2023-05-28T02:50:45;7.23;;;4.00;;
74920;SDS011;63483;47.384;8.860;2023-05-28T02:53:11;7.97;;;3.60;;
74920;SDS011;63483;47.384;8.860;2023-05-28T02:55:36;7.17;;;4.00;;
74920;SDS011;63483;47.384;8.860;2023-05-28T02:58:01;5.80;;;3.30;;
74920;SDS011;63483;47.384;8.860;2023-05-28T03:00:28;6.37;;;3.87;;
74920;SDS011;63483;47.384;8.860;2023-05-28T03:02:53;7.57;;;3.92;;
74920;SDS011;63483;47.384;8.860;2023-05-28T03:05:19;6.00;;;3.83;;
74920;SDS011;63483;47.384;8.860;2023-05-28T03:07:44;8.20;;;3.97;;
74920;SDS011;63483;47.384;8.860;2023-05-28T03:10:10;7.77;;;3.57;;
74920;SDS011;63483;47.384;8.860;2023-05-28T03:12:35;7.33;;;4.13;;
74920;SDS011;63483;47.384;8.860;2023-05-28T03:15:01;8.47;;;3.80;;
74920;SDS011;63483;47.384;8.860;2023-05-28T03:17:27;6.53;;;3.88;;
74920;SDS011;63483;47.384;8.860;2023-05-28T03:19:52;7.70;;;3.83;;
74920;SDS011;63483;47.384;8.860;2023-05-28T03:22:18;7.80;;;3.93;;
74920;SDS011;63483;47.384;8.860;2023-05-28T03:24:44;9.45;;;3.80;;
74920;SDS011;63483;47.384;8.860;2023-05-28T03:27:10;6.97;;;3.53;;
74920;SDS011;63483;47.384;8.860;2023-05-28T03:29:35;8.23;;;3.93;;
74920;SDS011;63483;47.384;8.860;2023-05-28T03:32:00;7.97;;;3.93;;
74920;SDS011;63483;47.384;8.860;2023-05-28T03:34:26;7.23;;;4.03;;
74920;SDS011;63483;47.384;8.860;2023-05-28T03:36:51;8.10;;;4.00;;
74920;SDS011;63483;47.384;8.860;2023-05-28T03:39:17;6.23;;;4.10;;
74920;SDS011;63483;47.384;8.860;2023-05-28T03:41:43;7.00;;;4.20;;
74920;SDS011;63483;47.384;8.860;2023-05-28T03:44:11;9.93;;;3.67;;
74920;SDS011;63483;47.384;8.860;2023-05-28T03:46:37;6.70;;;4.63;;
74920;SDS011;63483;47.384;8.860;2023-05-28T03:49:02;8.17;;;3.37;;
74920;SDS011;63483;47.384;8.860;2023-05-28T03:51:27;9.20;;;4.03;;
74920;SDS011;63483;47.384;8.860;2023-05-28T03:53:53;6.88;;;3.90;;
74920;SDS011;63483;47.384;8.860;2023-05-28T03:56:18;9.77;;;4.17;;
74920;SDS011;63483;47.384;8.860;2023-05-28T03:58:44;6.20;;;4.00;;
74920;SDS011;63483;47.384;8.860;2023-05-28T04:01:10;9.37;;;3.80;;
74920;SDS011;63483;47.384;8.860;2023-05-28T04:03:37;8.63;;;4.18;;
74920;SDS011;63483;47.384;8.860;2023-05-28T04:06:02;8.30;;;4.50;;
74920;SDS011;63483;47.384;8.860;2023-05-28T04:08:28;7.60;;;4.17;;
74920;SDS011;63483;47.384;8.860;2023-05-28T04:10:53;9.80;;;4.00;;
74920;SDS011;63483;47.384;8.860;2023-05-28T04:13:18;8.73;;;3.53;;
74920;SDS011;63483;47.384;8.860;2023-05-28T04:15:44;7.23;;;4.10;;
74920;SDS011;63483;47.384;8.860;2023-05-28T04:18:09;8.63;;;4.22;;
74920;SDS011;63483;47.384;8.860;2023-05-28T04:20:35;6.27;;;4.20;;
74920;SDS011;63483;47.384;8.860;2023-05-28T04:23:03;8.00;;;4.53;;
74920;SDS011;63483;47.384;8.860;2023-05-28T04:25:28;9.17;;;4.73;;
74920;SDS011;63483;47.384;8.860;2023-05-28T04:27:54;7.17;;;4.30;;
74920;SDS011;63483;47.384;8.860;2023-05-28T04:30:20;7.78;;;4.43;;
74920;SDS011;63483;47.384;8.860;2023-05-28T04:32:48;8.00;;;4.03;;
74920;SDS011;63483;47.384;8.860;2023-05-28T04:35:16;7.37;;;4.37;;
74920;SDS011;63483;47.384;8.860;2023-05-28T04:37:42;7.72;;;4.25;;
74920;SDS011;63483;47.384;8.860;2023-05-28T04:40:07;8.25;;;5.00;;
74920;SDS011;63483;47.384;8.860;2023-05-28T04:42:37;7.70;;;3.87;;
74920;SDS011;63483;47.384;8.860;2023-05-28T04:45:03;8.13;;;4.50;;
74920;SDS011;63483;47.384;8.860;2023-05-28T04:47:29;7.60;;;4.10;;
74920;SDS011;63483;47.384;8.860;2023-05-28T04:49:54;9.10;;;4.13;;
74920;SDS011;63483;47.384;8.860;2023-05-28T04:52:22;7.88;;;4.40;;
74920;SDS011;63483;47.384;8.860;2023-05-28T04:54:48;9.40;;;4.53;;
74920;SDS011;63483;47.384;8.860;2023-05-28T04:57:13;8.87;;;4.70;;
74920;SDS011;63483;47.384;8.860;2023-05-28T04:59:39;8.90;;;4.67;;
74920;SDS011;63483;47.384;8.860;2023-05-28T05:02:04;7.95;;;4.30;;
74920;SDS011;63483;47.384;8.860;2023-05-28T05:04:30;6.17;;;4.07;;
74920;SDS011;63483;47.384;8.860;2023-05-28T05:06:55;7.63;;;4.78;;
74920;SDS011;63483;47.384;8.860;2023-05-28T05:09:21;6.13;;;3.83;;
74920;SDS011;63483;47.384;8.860;2023-05-28T05:11:48;13.30;;;4.50;;
74920;SDS011;63483;47.384;8.860;2023-05-28T05:14:13;8.70;;;4.18;;
74920;SDS011;63483;47.384;8.860;2023-05-28T05:16:39;8.53;;;3.90;;
74920;SDS011;63483;47.384;8.860;2023-05-28T05:19:05;6.95;;;3.83;;
74920;SDS011;63483;47.384;8.860;2023-05-28T05:21:31;6.23;;;3.93;;
74920;SDS011;63483;47.384;8.860;2023-05-28T05:23:56;7.53;;;3.70;;
74920;SDS011;63483;47.384;8.860;2023-05-28T05:26:22;7.53;;;4.07;;
74920;SDS011;63483;47.384;8.860;2023-05-28T05:28:48;7.33;;;3.90;;
74920;SDS011;63483;47.384;8.860;2023-05-28T05:31:13;7.85;;;3.88;;
74920;SDS011;63483;47.384;8.860;2023-05-28T05:33:39;8.63;;;4.20;;
74920;SDS011;63483;47.384;8.860;2023-05-28T05:36:07;7.55;;;4.30;;
74920;SDS011;63483;47.384;8.860;2023-05-28T05:38:33;8.68;;;4.35;;
74920;SDS011;63483;47.384;8.860;2023-05-28T05:41:00;8.77;;;4.93;;
74920;SDS011;63483;47.384;8.860;2023-05-28T05:43:25;6.70;;;3.73;;
74920;SDS011;63483;47.384;8.860;2023-05-28T05:45:51;6.82;;;3.65;;
74920;SDS011;63483;47.384;8.860;2023-05-28T05:48:16;7.40;;;3.97;;
74920;SDS011;63483;47.384;8.860;2023-05-28T05:50:51;7.30;;;3.33;;
74920;SDS011;63483;47.384;8.860;2023-05-28T05:53:22;8.77;;;3.97;;
74920;SDS011;63483;47.384;8.860;2023-05-28T05:55:48;9.32;;;3.78;;
74920;SDS011;63483;47.384;8.860;2023-05-28T05:58:14;8.17;;;4.30;;
74920;SDS011;63483;47.384;8.860;2023-05-28T06:00:40;6.83;;;3.90;;
74920;SDS011;63483;47.384;8.860;2023-05-28T06:03:05;6.82;;;4.10;;
74920;SDS011;63483;47.384;8.860;2023-05-28T06:05:31;10.30;;;4.50;;
74920;SDS011;63483;47.384;8.860;2023-05-28T06:08:00;10.57;;;4.38;;
74920;SDS011;63483;47.384;8.860;2023-05-28T06:10:27;8.77;;;3.78;;
74920;SDS011;63483;47.384;8.860;2023-05-28T06:12:53;9.30;;;4.50;;
74920;SDS011;63483;47.384;8.860;2023-05-28T06:15:18;7.60;;;4.40;;
74920;SDS011;63483;47.384;8.860;2023-05-28T06:17:43;9.63;;;4.57;;
74920;SDS011;63483;47.384;8.860;2023-05-28T06:20:09;7.03;;;3.77;;
74920;SDS011;63483;47.384;8.860;2023-05-28T06:22:35;10.35;;;4.75;;
74920;SDS011;63483;47.384;8.860;2023-05-28T06:25:01;8.37;;;4.57;;
74920;SDS011;63483;47.384;8.860;2023-05-28T06:27:27;8.75;;;4.78;;
74920;SDS011;63483;47.384;8.860;2023-05-28T06:29:53;8.03;;;4.83;;
74920;SDS011;63483;47.384;8.860;2023-05-28T06:32:18;8.67;;;4.70;;
74920;SDS011;63483;47.384;8.860;2023-05-28T06:34:44;8.02;;;4.43;;
74920;SDS011;63483;47.384;8.860;2023-05-28T06:37:09;8.37;;;4.50;;
74920;SDS011;63483;47.384;8.860;2023-05-28T06:39:35;7.07;;;3.90;;
74920;SDS011;63483;47.384;8.860;2023-05-28T06:42:01;9.93;;;4.60;;
74920;SDS011;63483;47.384;8.860;2023-05-28T06:44:27;7.70;;;4.30;;
74920;SDS011;63483;47.384;8.860;2023-05-28T06:46:52;9.13;;;4.27;;
74920;SDS011;63483;47.384;8.860;2023-05-28T06:49:18;8.97;;;4.27;;
74920;SDS011;63483;47.384;8.860;2023-05-28T06:51:43;9.38;;;4.15;;
74920;SDS011;63483;47.384;8.860;2023-05-28T06:54:08;8.83;;;4.27;;
74920;SDS011;63483;47.384;8.860;2023-05-28T06:56:34;9.13;;;4.73;;
74920;SDS011;63483;47.384;8.860;2023-05-28T06:59:00;9.07;;;4.20;;
74920;SDS011;63483;47.384;8.860;2023-05-28T07:01:27;8.27;;;4.00;;
74920;SDS011;63483;47.384;8.860;2023-05-28T07:03:52;9.95;;;4.43;;
74920;SDS011;63483;47.384;8.860;2023-05-28T07:06:18;9.00;;;4.20;;
74920;SDS011;63483;47.384;8.860;2023-05-28T07:08:43;8.17;;;3.80;;
74920;SDS011;63483;47.384;8.860;2023-05-28T07:11:13;9.57;;;3.97;;
74920;SDS011;63483;47.384;8.860;2023-05-28T07:13:39;9.30;;;4.43;;
74920;SDS011;63483;47.384;8.860;2023-05-28T07:16:05;6.55;;;4.22;;
74920;SDS011;63483;47.384;8.860;2023-05-28T07:18:31;8.35;;;4.57;;
74920;SDS011;63483;47.384;8.860;2023-05-28T07:20:57;8.50;;;4.47;;
74920;SDS011;63483;47.384;8.860;2023-05-28T07:23:22;8.02;;;4.30;;
74920;SDS011;63483;47.384;8.860;2023-05-28T07:25:47;9.67;;;4.40;;
74920;SDS011;63483;47.384;8.860;2023-05-28T07:28:14;9.07;;;4.63;;
74920;SDS011;63483;47.384;8.860;2023-05-28T07:30:43;6.57;;;3.97;;
74920;SDS011;63483;47.384;8.860;2023-05-28T07:33:08;9.63;;;4.65;;
74920;SDS011;63483;47.384;8.860;2023-05-28T07:35:33;9.63;;;3.83;;
74920;SDS011;63483;47.384;8.860;2023-05-28T07:38:01;8.90;;;4.23;;
74920;SDS011;63483;47.384;8.860;2023-05-28T07:40:26;7.97;;;4.30;;
74920;SDS011;63483;47.384;8.860;2023-05-28T07:42:52;7.65;;;4.30;;
74920;SDS011;63483;47.384;8.860;2023-05-28T07:45:18;8.47;;;4.03;;
74920;SDS011;63483;47.384;8.860;2023-05-28T07:47:43;7.97;;;3.90;;
74920;SDS011;63483;47.384;8.860;2023-05-28T07:50:08;8.00;;;3.93;;
74920;SDS011;63483;47.384;8.860;2023-05-28T07:52:35;7.50;;;3.95;;
74920;SDS011;63483;47.384;8.860;2023-05-28T07:55:01;9.85;;;4.13;;
74920;SDS011;63483;47.384;8.860;2023-05-28T07:57:26;8.63;;;4.28;;
74920;SDS011;63483;47.384;8.860;2023-05-28T07:59:52;8.07;;;4.23;;
74920;SDS011;63483;47.384;8.860;2023-05-28T08:02:17;9.13;;;4.23;;
74920;SDS011;63483;47.384;8.860;2023-05-28T08:04:43;10.53;;;4.47;;
74920;SDS011;63483;47.384;8.860;2023-05-28T08:07:08;9.40;;;4.28;;
74920;SDS011;63483;47.384;8.860;2023-05-28T08:09:37;7.80;;;4.27;;
74920;SDS011;63483;47.384;8.860;2023-05-28T08:12:04;8.07;;;4.22;;
74920;SDS011;63483;47.384;8.860;2023-05-28T08:14:29;8.17;;;4.27;;
74920;SDS011;63483;47.384;8.860;2023-05-28T08:16:54;8.98;;;4.57;;
74920;SDS011;63483;47.384;8.860;2023-05-28T08:19:20;8.47;;;4.17;;
74920;SDS011;63483;47.384;8.860;2023-05-28T08:21:45;10.23;;;4.40;;
74920;SDS011;63483;47.384;8.860;2023-05-28T08:24:11;8.40;;;4.00;;
74920;SDS011;63483;47.384;8.860;2023-05-28T08:26:37;8.97;;;4.53;;
74920;SDS011;63483;47.384;8.860;2023-05-28T08:29:02;7.97;;;4.37;;
74920;SDS011;63483;47.384;8.860;2023-05-28T08:31:29;8.52;;;4.60;;
74920;SDS011;63483;47.384;8.860;2023-05-28T08:33:55;9.18;;;4.57;;
74920;SDS011;63483;47.384;8.860;2023-05-28T08:36:21;6.90;;;3.40;;
74920;SDS011;63483;47.384;8.860;2023-05-28T08:38:46;8.00;;;4.30;;
74920;SDS011;63483;47.384;8.860;2023-05-28T08:41:11;8.40;;;4.57;;
74920;SDS011;63483;47.384;8.860;2023-05-28T08:43:37;9.43;;;4.78;;
74920;SDS011;63483;47.384;8.860;2023-05-28T08:46:04;8.20;;;4.37;;
74920;SDS011;63483;47.384;8.860;2023-05-28T08:48:31;7.68;;;4.30;;
74920;SDS011;63483;47.384;8.860;2023-05-28T08:50:59;7.45;;;4.07;;
74920;SDS011;63483;47.384;8.860;2023-05-28T08:53:24;8.60;;;4.70;;
74920;SDS011;63483;47.384;8.860;2023-05-28T08:55:54;9.07;;;4.40;;
74920;SDS011;63483;47.384;8.860;2023-05-28T08:58:20;7.80;;;4.50;;
74920;SDS011;63483;47.384;8.860;2023-05-28T09:00:46;9.18;;;4.45;;
74920;SDS011;63483;47.384;8.860;2023-05-28T09:03:12;6.50;;;4.70;;
74920;SDS011;63483;47.384;8.860;2023-05-28T09:05:38;7.47;;;4.40;;
74920;SDS011;63483;47.384;8.860;2023-05-28T09:08:07;8.80;;;4.13;;
74920;SDS011;63483;47.384;8.860;2023-05-28T09:10:35;8.67;;;4.53;;
74920;SDS011;63483;47.384;8.860;2023-05-28T09:13:01;10.35;;;4.80;;
74920;SDS011;63483;47.384;8.860;2023-05-28T09:15:27;10.15;;;4.93;;
74920;SDS011;63483;47.384;8.860;2023-05-28T09:17:54;10.02;;;4.70;;
74920;SDS011;63483;47.384;8.860;2023-05-28T09:20:21;7.40;;;4.43;;
74920;SDS011;63483;47.384;8.860;2023-05-28T09:22:55;7.55;;;4.85;;
74920;SDS011;63483;47.384;8.860;2023-05-28T09:25:24;10.65;;;5.25;;
74920;SDS011;63483;47.384;8.860;2023-05-28T09:27:49;8.50;;;5.00;;
74920;SDS011;63483;47.384;8.860;2023-05-28T09:30:15;10.67;;;4.80;;
74920;SDS011;63483;47.384;8.860;2023-05-28T09:32:40;9.97;;;4.87;;
74920;SDS011;63483;47.384;8.860;2023-05-28T09:35:06;8.60;;;5.03;;
74920;SDS011;63483;47.384;8.860;2023-05-28T09:37:33;9.63;;;4.82;;
74920;SDS011;63483;47.384;8.860;2023-05-28T09:40:00;9.97;;;4.83;;
74920;SDS011;63483;47.384;8.860;2023-05-28T09:42:46;8.70;;;4.60;;
74920;SDS011;63483;47.384;8.860;2023-05-28T09:45:22;10.88;;;5.10;;
74920;SDS011;63483;47.384;8.860;2023-05-28T09:47:49;8.90;;;5.18;;
74920;SDS011;63483;47.384;8.860;2023-05-28T09:50:15;9.00;;;5.43;;
74920;SDS011;63483;47.384;8.860;2023-05-28T09:52:42;8.83;;;5.90;;
74920;SDS011;63483;47.384;8.860;2023-05-28T09:55:11;10.75;;;5.97;;
74920;SDS011;63483;47.384;8.860;2023-05-28T09:57:41;9.60;;;5.20;;
74920;SDS011;63483;47.384;8.860;2023-05-28T10:00:10;8.15;;;5.10;;
74920;SDS011;63483;47.384;8.860;2023-05-28T10:05:15;10.63;;;5.75;;
74920;SDS011;63483;47.384;8.860;2023-05-28T10:07:44;8.60;;;4.60;;
74920;SDS011;63483;47.384;8.860;2023-05-28T10:10:13;9.20;;;5.20;;
74920;SDS011;63483;47.384;8.860;2023-05-28T10:12:40;9.10;;;5.10;;
74920;SDS011;63483;47.384;8.860;2023-05-28T10:15:07;12.97;;;5.70;;
74920;SDS011;63483;47.384;8.860;2023-05-28T10:17:32;7.78;;;5.35;;
74920;SDS011;63483;47.384;8.860;2023-05-28T10:19:59;10.05;;;6.00;;
74920;SDS011;63483;47.384;8.860;2023-05-28T10:22:25;9.03;;;5.07;;
74920;SDS011;63483;47.384;8.860;2023-05-28T10:24:51;8.77;;;5.47;;
74920;SDS011;63483;47.384;8.860;2023-05-28T10:27:17;8.57;;;5.70;;
74920;SDS011;63483;47.384;8.860;2023-05-28T10:29:44;8.85;;;5.07;;
74920;SDS011;63483;47.384;8.860;2023-05-28T10:32:14;8.32;;;4.82;;
74920;SDS011;63483;47.384;8.860;2023-05-28T10:34:40;10.48;;;5.57;;
74920;SDS011;63483;47.384;8.860;2023-05-28T10:37:06;12.10;;;6.43;;
74920;SDS011;63483;47.384;8.860;2023-05-28T10:39:39;9.73;;;5.65;;
74920;SDS011;63483;47.384;8.860;2023-05-28T10:42:09;8.77;;;5.60;;
74920;SDS011;63483;47.384;8.860;2023-05-28T10:47:35;8.15;;;5.07;;
74920;SDS011;63483;47.384;8.860;2023-05-28T10:52:35;8.88;;;4.90;;
74920;SDS011;63483;47.384;8.860;2023-05-28T10:55:02;8.95;;;5.50;;
74920;SDS011;63483;47.384;8.860;2023-05-28T11:00:05;10.18;;;5.88;;
74920;SDS011;63483;47.384;8.860;2023-05-28T11:02:36;10.93;;;6.05;;
74920;SDS011;63483;47.384;8.860;2023-05-28T11:05:02;9.03;;;5.03;;
74920;SDS011;63483;47.384;8.860;2023-05-28T11:09:56;8.05;;;5.72;;
74920;SDS011;63483;47.384;8.860;2023-05-28T11:12:25;9.90;;;5.00;;
74920;SDS011;63483;47.384;8.860;2023-05-28T11:14:52;9.93;;;5.50;;
74920;SDS011;63483;47.384;8.860;2023-05-28T11:17:17;9.25;;;5.88;;
74920;SDS011;63483;47.384;8.860;2023-05-28T11:19:50;12.38;;;5.57;;
74920;SDS011;63483;47.384;8.860;2023-05-28T11:22:17;12.20;;;6.20;;
74920;SDS011;63483;47.384;8.860;2023-05-28T11:24:53;10.00;;;5.80;;
74920;SDS011;63483;47.384;8.860;2023-05-28T11:27:22;8.57;;;5.95;;
74920;SDS011;63483;47.384;8.860;2023-05-28T11:29:48;10.23;;;5.53;;
74920;SDS011;63483;47.384;8.860;2023-05-28T11:32:17;8.93;;;5.40;;
74920;SDS011;63483;47.384;8.860;2023-05-28T11:34:42;11.25;;;5.55;;
74920;SDS011;63483;47.384;8.860;2023-05-28T11:37:08;11.80;;;6.17;;
74920;SDS011;63483;47.384;8.860;2023-05-28T11:39:33;11.23;;;5.57;;
74920;SDS011;63483;47.384;8.860;2023-05-28T11:41:59;8.83;;;5.07;;
74920;SDS011;63483;47.384;8.860;2023-05-28T11:44:25;10.20;;;5.78;;
74920;SDS011;63483;47.384;8.860;2023-05-28T11:46:52;11.33;;;5.83;;
74920;SDS011;63483;47.384;8.860;2023-05-28T11:49:20;9.70;;;5.30;;
74920;SDS011;63483;47.384;8.860;2023-05-28T11:51:46;12.10;;;6.23;;
74920;SDS011;63483;47.384;8.860;2023-05-28T11:54:11;9.85;;;5.32;;
74920;SDS011;63483;47.384;8.860;2023-05-28T11:56:36;8.10;;;5.37;;
74920;SDS011;63483;47.384;8.860;2023-05-28T11:59:02;8.70;;;4.67;;
74920;SDS011;63483;47.384;8.860;2023-05-28T12:01:31;9.93;;;5.70;;
74920;SDS011;63483;47.384;8.860;2023-05-28T12:04:03;9.60;;;4.85;;
74920;SDS011;63483;47.384;8.860;2023-05-28T12:06:32;9.98;;;5.10;;
74920;SDS011;63483;47.384;8.860;2023-05-28T12:09:05;8.47;;;5.07;;
74920;SDS011;63483;47.384;8.860;2023-05-28T12:11:31;11.77;;;5.18;;
74920;SDS011;63483;47.384;8.860;2023-05-28T12:13:57;11.02;;;5.18;;
74920;SDS011;63483;47.384;8.860;2023-05-28T12:16:25;8.88;;;5.55;;
74920;SDS011;63483;47.384;8.860;2023-05-28T12:18:50;11.93;;;5.40;;
74920;SDS011;63483;47.384;8.860;2023-05-28T12:21:15;10.40;;;5.53;;
74920;SDS011;63483;47.384;8.860;2023-05-28T12:23:45;10.18;;;5.82;;
74920;SDS011;63483;47.384;8.860;2023-05-28T12:26:11;9.07;;;4.93;;
74920;SDS011;63483;47.384;8.860;2023-05-28T12:28:37;8.23;;;5.40;;
74920;SDS011;63483;47.384;8.860;2023-05-28T12:31:05;10.80;;;4.77;;
74920;SDS011;63483;47.384;8.860;2023-05-28T12:33:30;9.25;;;5.68;;
74920;SDS011;63483;47.384;8.860;2023-05-28T12:35:56;10.70;;;5.13;;
74920;SDS011;63483;47.384;8.860;2023-05-28T12:38:21;9.17;;;5.20;;
74920;SDS011;63483;47.384;8.860;2023-05-28T12:40:47;9.20;;;4.97;;
74920;SDS011;63483;47.384;8.860;2023-05-28T12:43:13;10.43;;;5.00;;
74920;SDS011;63483;47.384;8.860;2023-05-28T12:45:39;7.28;;;4.70;;
74920;SDS011;63483;47.384;8.860;2023-05-28T12:48:04;7.13;;;5.00;;
74920;SDS011;63483;47.384;8.860;2023-05-28T12:50:30;10.03;;;5.20;;
74920;SDS011;63483;47.384;8.860;2023-05-28T12:52:55;8.90;;;4.53;;
74920;SDS011;63483;47.384;8.860;2023-05-28T12:55:21;7.33;;;5.33;;
74920;SDS011;63483;47.384;8.860;2023-05-28T12:57:46;7.00;;;4.67;;
74920;SDS011;63483;47.384;8.860;2023-05-28T13:00:12;6.83;;;4.77;;
74920;SDS011;63483;47.384;8.860;2023-05-28T13:02:38;8.70;;;4.85;;
74920;SDS011;63483;47.384;8.860;2023-05-28T13:05:03;7.70;;;4.97;;
74920;SDS011;63483;47.384;8.860;2023-05-28T13:07:29;8.67;;;5.10;;
74920;SDS011;63483;47.384;8.860;2023-05-28T13:09:55;7.90;;;4.70;;
74920;SDS011;63483;47.384;8.860;2023-05-28T13:12:20;12.13;;;4.90;;
74920;SDS011;63483;47.384;8.860;2023-05-28T13:14:46;7.60;;;4.63;;
74920;SDS011;63483;47.384;8.860;2023-05-28T13:17:11;8.57;;;5.10;;
74920;SDS011;63483;47.384;8.860;2023-05-28T13:19:36;7.18;;;4.47;;
74920;SDS011;63483;47.384;8.860;2023-05-28T13:22:02;7.80;;;4.30;;
74920;SDS011;63483;47.384;8.860;2023-05-28T13:24:27;7.57;;;4.60;;
74920;SDS011;63483;47.384;8.860;2023-05-28T13:26:53;9.27;;;4.93;;
74920;SDS011;63483;47.384;8.860;2023-05-28T13:29:18;8.73;;;4.90;;
74920;SDS011;63483;47.384;8.860;2023-05-28T13:31:44;11.70;;;4.95;;
74920;SDS011;63483;47.384;8.860;2023-05-28T13:34:09;8.23;;;4.33;;
74920;SDS011;63483;47.384;8.860;2023-05-28T13:36:35;8.73;;;5.17;;
74920;SDS011;63483;47.384;8.860;2023-05-28T13:39:01;6.30;;;4.95;;
74920;SDS011;63483;47.384;8.860;2023-05-28T13:41:26;8.47;;;4.50;;
74920;SDS011;63483;47.384;8.860;2023-05-28T13:43:52;6.82;;;4.93;;
74920;SDS011;63483;47.384;8.860;2023-05-28T13:46:27;5.80;;;3.90;;
74920;SDS011;63483;47.384;8.860;2023-05-28T13:48:53;8.38;;;4.70;;
74920;SDS011;63483;47.384;8.860;2023-05-28T13:51:18;12.23;;;4.55;;
74920;SDS011;63483;47.384;8.860;2023-05-28T13:53:44;7.60;;;4.25;;
74920;SDS011;63483;47.384;8.860;2023-05-28T13:56:11;9.37;;;5.27;;
74920;SDS011;63483;47.384;8.860;2023-05-28T13:58:37;7.05;;;4.13;;
74920;SDS011;63483;47.384;8.860;2023-05-28T14:01:03;7.18;;;4.47;;
74920;SDS011;63483;47.384;8.860;2023-05-28T14:03:28;8.03;;;4.47;;
74920;SDS011;63483;47.384;8.860;2023-05-28T14:05:53;7.40;;;4.10;;
74920;SDS011;63483;47.384;8.860;2023-05-28T14:08:20;7.35;;;4.35;;
74920;SDS011;63483;47.384;8.860;2023-05-28T14:10:45;8.03;;;4.50;;
74920;SDS011;63483;47.384;8.860;2023-05-28T14:13:11;6.60;;;4.47;;
74920;SDS011;63483;47.384;8.860;2023-05-28T14:15:36;7.13;;;4.43;;
74920;SDS011;63483;47.384;8.860;2023-05-28T14:18:01;7.23;;;4.33;;
74920;SDS011;63483;47.384;8.860;2023-05-28T14:20:27;6.10;;;3.95;;
74920;SDS011;63483;47.384;8.860;2023-05-28T14:22:54;7.13;;;4.63;;
74920;SDS011;63483;47.384;8.860;2023-05-28T14:25:19;6.95;;;3.90;;
74920;SDS011;63483;47.384;8.860;2023-05-28T14:27:45;6.57;;;4.30;;
74920;SDS011;63483;47.384;8.860;2023-05-28T14:30:10;7.67;;;4.90;;
74920;SDS011;63483;47.384;8.860;2023-05-28T14:32:36;7.88;;;4.30;;
74920;SDS011;63483;47.384;8.860;2023-05-28T14:35:02;7.40;;;4.13;;
74920;SDS011;63483;47.384;8.860;2023-05-28T14:37:30;7.25;;;4.30;;
74920;SDS011;63483;47.384;8.860;2023-05-28T14:39:56;8.27;;;4.33;;
74920;SDS011;63483;47.384;8.860;2023-05-28T14:42:23;8.02;;;4.00;;
74920;SDS011;63483;47.384;8.860;2023-05-28T14:44:48;8.27;;;4.27;;
74920;SDS011;63483;47.384;8.860;2023-05-28T14:47:15;6.47;;;3.90;;
74920;SDS011;63483;47.384;8.860;2023-05-28T14:49:41;6.75;;;3.80;;
74920;SDS011;63483;47.384;8.860;2023-05-28T14:55:00;10.00;;;4.40;;